createdAt,value
2018-03-04T00:00:58.906Z,73.26
2018-03-04T00:03:32.537Z,73.62
2018-03-04T00:06:06.173Z,73.31
2018-03-04T00:08:39.697Z,73.32
2018-03-04T00:11:13.310Z,73.43
2018-03-04T00:13:47.107Z,73.32
2018-03-04T00:16:21.131Z,73.20
2018-03-04T00:18:54.690Z,73.37
2018-03-04T00:21:28.423Z,73.24
2018-03-04T00:24:02.549Z,73.26
2018-03-04T00:26:36.182Z,73.58
2018-03-04T00:29:09.937Z,73.23
2018-03-04T00:31:43.588Z,73.81
2018-03-04T00:34:17.241Z,74.17
2018-03-04T00:36:50.993Z,74.39
2018-03-04T00:39:24.572Z,74.53
2018-03-04T00:41:58.206Z,75.03
2018-03-04T00:44:31.929Z,75.28
2018-03-04T00:47:05.611Z,75.55
2018-03-04T00:49:39.353Z,76.01
2018-03-04T00:52:13.010Z,76.02
2018-03-04T00:54:46.666Z,76.48
2018-03-04T00:57:20.515Z,76.48
2018-03-04T00:59:54.274Z,76.64
2018-03-04T01:02:28.119Z,77.10
2018-03-04T01:05:01.792Z,76.81
2018-03-04T01:07:35.350Z,76.76
2018-03-04T01:10:08.808Z,76.77
2018-03-04T01:12:42.523Z,76.55
2018-03-04T01:15:16.204Z,76.86
2018-03-04T01:17:49.842Z,76.42
2018-03-04T01:20:23.535Z,76.57
2018-03-04T01:22:57.139Z,76.55
2018-03-04T01:25:30.850Z,76.68
2018-03-04T01:28:04.424Z,76.98
2018-03-04T01:30:38.249Z,77.17
2018-03-04T01:33:11.882Z,77.23
2018-03-04T01:35:45.446Z,77.49
2018-03-04T01:38:19.173Z,77.56
2018-03-04T01:40:52.777Z,77.91
2018-03-04T01:43:26.566Z,77.87
2018-03-04T01:46:00.173Z,77.64
2018-03-04T01:48:33.824Z,77.62
2018-03-04T01:51:07.523Z,77.58
2018-03-04T01:53:41.232Z,77.84
2018-03-04T01:56:15.044Z,77.77
2018-03-04T01:58:48.770Z,77.80
2018-03-04T02:01:22.584Z,77.98
2018-03-04T02:03:56.335Z,78.19
2018-03-04T02:06:30.066Z,78.36
2018-03-04T02:09:03.922Z,78.43
2018-03-04T02:11:37.695Z,78.51
2018-03-04T02:14:11.398Z,78.62
2018-03-04T02:16:45.069Z,78.66
2018-03-04T02:19:18.666Z,78.61
2018-03-04T02:21:52.231Z,78.60
2018-03-04T02:24:25.915Z,78.50
2018-03-04T02:27:05.264Z,78.44
2018-03-04T02:29:38.896Z,78.53
2018-03-04T02:32:12.544Z,78.39
2018-03-04T02:34:46.104Z,78.33
2018-03-04T02:37:19.891Z,78.24
2018-03-04T02:39:53.432Z,78.42
2018-03-04T02:42:27.043Z,78.01
2018-03-04T02:45:08.979Z,78.21
2018-03-04T02:47:42.535Z,78.41
2018-03-04T02:50:16.210Z,78.26
2018-03-04T02:52:49.816Z,78.40
2018-03-04T02:55:23.524Z,78.33
2018-03-04T02:57:57.077Z,78.31
2018-03-04T03:00:30.759Z,78.39
2018-03-04T03:03:04.371Z,78.49
2018-03-04T03:05:37.921Z,78.12
2018-03-04T03:08:11.572Z,78.27
2018-03-04T03:10:45.304Z,78.11
2018-03-04T03:13:18.991Z,78.22
2018-03-04T03:15:52.651Z,78.20
2018-03-04T03:18:26.176Z,78.31
2018-03-04T03:20:59.919Z,78.06
2018-03-04T03:23:33.554Z,78.14
2018-03-04T03:26:07.296Z,78.32
2018-03-04T03:28:40.864Z,78.24
2018-03-04T03:31:14.502Z,78.35
2018-03-04T03:33:48.176Z,78.32
2018-03-04T03:36:21.898Z,78.19
2018-03-04T03:38:55.484Z,78.26
2018-03-04T03:41:29.209Z,78.14
2018-03-04T03:44:02.782Z,78.20
2018-03-04T03:46:36.591Z,78.22
2018-03-04T03:49:10.410Z,78.58
2018-03-04T03:51:44.035Z,78.51
2018-03-04T03:54:17.612Z,78.58
2018-03-04T03:56:51.162Z,78.55
2018-03-04T03:59:24.824Z,78.59
2018-03-04T04:01:58.332Z,78.64
2018-03-04T04:04:32.088Z,78.75
2018-03-04T04:07:05.742Z,78.56
2018-03-04T04:09:39.410Z,78.55
2018-03-04T04:12:12.969Z,78.65
2018-03-04T04:14:46.802Z,78.59
2018-03-04T04:17:20.466Z,78.72
2018-03-04T04:19:54.066Z,78.93
2018-03-04T04:22:27.874Z,78.81
2018-03-04T04:25:01.602Z,78.73
2018-03-04T04:27:35.413Z,78.75
2018-03-04T04:30:09.142Z,78.90
2018-03-04T04:32:42.846Z,78.87
2018-03-04T04:35:16.412Z,78.78
2018-03-04T04:37:50.076Z,78.93
2018-03-04T04:40:23.683Z,78.97
2018-03-04T04:42:57.563Z,79.17
2018-03-04T04:45:31.360Z,79.03
2018-03-04T04:48:05.038Z,79.11
2018-03-04T04:50:38.686Z,79.12
2018-03-04T04:53:12.194Z,79.18
2018-03-04T04:55:45.927Z,79.25
2018-03-04T04:58:19.657Z,79.29
2018-03-04T05:00:53.341Z,79.22
2018-03-04T05:03:27.066Z,79.25
2018-03-04T05:06:00.850Z,79.37
2018-03-04T05:08:34.440Z,79.36
2018-03-04T05:11:08.237Z,79.41
2018-03-04T05:13:41.850Z,79.27
2018-03-04T05:16:15.680Z,79.34
2018-03-04T05:18:49.212Z,79.54
2018-03-04T05:21:22.896Z,79.18
2018-03-04T05:23:56.474Z,79.22
2018-03-04T05:26:30.174Z,79.29
2018-03-04T05:29:03.844Z,79.50
2018-03-04T05:31:37.501Z,79.21
2018-03-04T05:34:11.045Z,79.12
2018-03-04T05:36:44.866Z,79.18
2018-03-04T05:39:18.676Z,79.25
2018-03-04T05:41:52.367Z,79.06
2018-03-04T05:44:26.025Z,79.23
2018-03-04T05:46:59.658Z,79.26
2018-03-04T05:49:33.413Z,79.25
2018-03-04T05:52:07.135Z,79.22
2018-03-04T05:54:40.869Z,79.17
2018-03-04T05:57:14.513Z,79.31
2018-03-04T05:59:49.154Z,79.32
2018-03-04T06:02:22.801Z,79.41
2018-03-04T06:04:56.473Z,79.31
2018-03-04T06:07:30.175Z,79.37
2018-03-04T06:10:04.106Z,79.23
2018-03-04T06:12:37.772Z,79.13
2018-03-04T06:15:11.328Z,79.09
2018-03-04T06:17:44.842Z,79.26
2018-03-04T06:20:18.566Z,79.32
2018-03-04T06:22:52.320Z,79.34
2018-03-04T06:25:25.965Z,79.36
2018-03-04T06:27:59.667Z,79.44
2018-03-04T06:30:33.477Z,79.40
2018-03-04T06:33:07.102Z,79.67
2018-03-04T06:35:40.650Z,79.58
2018-03-04T06:38:14.252Z,79.73
2018-03-04T06:40:47.978Z,79.70
2018-03-04T06:43:21.521Z,79.71
2018-03-04T06:48:54.470Z,79.83
2018-03-04T06:51:28.234Z,79.98
2018-03-04T06:54:02.009Z,80.03
2018-03-04T06:56:35.781Z,80.17
2018-03-04T06:59:09.472Z,80.29
2018-03-04T07:01:43.092Z,80.09
2018-03-04T07:04:16.649Z,80.12
2018-03-04T07:06:50.396Z,80.19
2018-03-04T07:09:24.005Z,80.31
2018-03-04T07:11:57.768Z,80.24
2018-03-04T07:14:31.399Z,80.23
2018-03-04T07:17:05.204Z,80.33
2018-03-04T07:19:38.917Z,80.36
2018-03-04T07:22:12.581Z,80.26
2018-03-04T07:24:46.393Z,79.96
2018-03-04T07:27:20.169Z,79.93
2018-03-04T07:29:53.887Z,79.93
2018-03-04T07:32:27.693Z,80.01
2018-03-04T07:35:01.421Z,79.78
2018-03-04T07:37:35.043Z,79.81
2018-03-04T07:40:08.744Z,79.75
2018-03-04T07:42:42.346Z,79.71
2018-03-04T07:45:16.029Z,79.78
2018-03-04T07:47:49.610Z,79.43
2018-03-04T07:50:23.357Z,78.83
2018-03-04T07:52:57.123Z,78.05
2018-03-04T07:55:30.718Z,76.60
2018-03-04T07:58:04.406Z,75.99
2018-03-04T08:00:38.013Z,75.44
2018-03-04T08:03:11.815Z,72.94
2018-03-04T08:05:45.472Z,70.33
2018-03-04T08:08:19.305Z,69.12
2018-03-04T08:10:53.198Z,68.76
2018-03-04T08:13:26.718Z,67.76
2018-03-04T08:16:00.454Z,65.53
2018-03-04T08:18:34.094Z,65.24
2018-03-04T08:21:07.725Z,64.08
2018-03-04T08:23:41.394Z,64.11
2018-03-04T08:26:26.921Z,63.69
2018-03-04T08:29:00.701Z,64.88
2018-03-04T08:31:34.389Z,66.45
2018-03-04T08:34:08.102Z,67.93
2018-03-04T08:36:53.782Z,70.08
2018-03-04T08:39:27.358Z,70.61
2018-03-04T08:42:01.052Z,71.15
2018-03-04T08:44:34.754Z,70.06
2018-03-04T08:47:08.357Z,68.90
2018-03-04T08:49:41.907Z,68.65
2018-03-04T08:52:15.512Z,67.03
2018-03-04T08:54:49.413Z,64.12
2018-03-04T08:57:23.116Z,62.06
2018-03-04T08:59:56.698Z,60.87
2018-03-04T09:02:30.266Z,59.78
2018-03-04T09:05:03.852Z,58.66
2018-03-04T09:07:37.462Z,57.03
2018-03-04T09:10:11.028Z,55.13
2018-03-04T09:12:44.545Z,54.55
2018-03-04T09:15:18.350Z,55.43
2018-03-04T09:17:51.927Z,55.67
2018-03-04T09:20:25.749Z,57.68
2018-03-04T09:22:59.368Z,58.47
2018-03-04T09:25:32.969Z,60.67
2018-03-04T09:28:06.605Z,61.64
2018-03-04T09:30:40.220Z,62.63
2018-03-04T09:33:13.942Z,62.49
2018-03-04T09:35:47.469Z,62.07
2018-03-04T09:38:21.157Z,61.05
2018-03-04T09:40:54.731Z,62.06
2018-03-04T09:43:28.370Z,62.48
2018-03-04T09:46:02.127Z,63.70
2018-03-04T09:48:35.838Z,63.98
2018-03-04T09:51:09.538Z,65.51
2018-03-04T09:53:43.222Z,66.16
2018-03-04T09:56:16.946Z,65.72
2018-03-04T09:58:50.506Z,65.28
2018-03-04T10:01:24.093Z,64.43
2018-03-04T10:03:57.733Z,64.10
2018-03-04T10:06:31.341Z,63.43
2018-03-04T10:09:05.070Z,63.41
2018-03-04T10:11:38.739Z,63.84
2018-03-04T10:14:12.530Z,63.02
2018-03-04T10:16:46.308Z,62.36
2018-03-04T10:19:19.979Z,62.92
2018-03-04T10:21:53.757Z,61.74
2018-03-04T10:24:27.584Z,61.87
2018-03-04T10:27:01.208Z,62.23
2018-03-04T10:29:34.986Z,62.92
2018-03-04T10:32:08.768Z,62.45
2018-03-04T10:34:42.462Z,62.83
2018-03-04T10:37:16.078Z,62.06
2018-03-04T10:39:49.766Z,62.42
2018-03-04T10:42:23.469Z,62.65
2018-03-04T10:44:57.217Z,61.91
2018-03-04T10:47:30.910Z,61.81
2018-03-04T10:50:04.495Z,61.14
2018-03-04T10:52:38.128Z,60.98
2018-03-04T10:55:11.896Z,60.75
2018-03-04T10:57:45.451Z,59.86
2018-03-04T11:00:25.074Z,59.11
2018-03-04T11:02:59.689Z,58.06
2018-03-04T11:05:33.327Z,58.24
2018-03-04T11:08:06.959Z,57.85
2018-03-04T11:10:40.634Z,57.50
2018-03-04T11:13:14.313Z,57.09
2018-03-04T11:15:47.897Z,56.28
2018-03-04T11:18:21.598Z,56.57
2018-03-04T11:20:55.273Z,56.10
2018-03-04T11:23:28.930Z,54.33
2018-03-04T11:26:02.676Z,55.80
2018-03-04T11:28:36.293Z,55.19
2018-03-04T11:31:09.882Z,55.36
2018-03-04T11:33:44.009Z,56.08
2018-03-04T11:36:17.736Z,55.84
2018-03-04T11:38:51.453Z,56.37
2018-03-04T11:41:25.055Z,55.81
2018-03-04T11:43:58.807Z,56.25
2018-03-04T11:46:32.444Z,55.81
2018-03-04T11:49:06.045Z,55.27
2018-03-04T11:51:39.677Z,54.88
2018-03-04T11:54:13.489Z,54.00
2018-03-04T11:56:47.291Z,54.12
2018-03-04T11:59:20.892Z,54.26
2018-03-04T12:01:54.690Z,54.69
2018-03-04T12:04:28.326Z,55.56
2018-03-04T12:07:01.883Z,56.35
2018-03-04T12:09:35.566Z,55.91
2018-03-04T12:12:09.282Z,55.44
2018-03-04T12:14:43.144Z,55.18
2018-03-04T12:17:16.768Z,54.94
2018-03-04T12:19:50.434Z,54.33
2018-03-04T12:22:24.163Z,54.01
2018-03-04T12:24:57.978Z,53.72
2018-03-04T12:27:31.813Z,53.49
2018-03-04T12:30:05.471Z,53.27
2018-03-04T12:32:39.243Z,53.21
2018-03-04T12:35:12.872Z,52.83
2018-03-04T12:37:46.667Z,52.69
2018-03-04T12:40:20.732Z,53.01
2018-03-04T12:42:54.539Z,53.31
2018-03-04T12:45:28.208Z,54.12
2018-03-04T12:48:02.044Z,54.73
2018-03-04T12:50:35.783Z,54.47
2018-03-04T12:53:09.546Z,54.00
2018-03-04T12:55:43.314Z,53.56
2018-03-04T12:58:16.908Z,53.35
2018-03-04T13:00:50.706Z,53.43
2018-03-04T13:03:25.389Z,52.72
2018-03-04T13:08:58.340Z,54.14
2018-03-04T13:11:32.444Z,52.94
2018-03-04T13:14:06.347Z,52.74
2018-03-04T13:16:40.057Z,52.43
2018-03-04T13:19:13.774Z,52.48
2018-03-04T13:21:47.503Z,52.30
2018-03-04T13:24:21.300Z,51.85
2018-03-04T13:26:55.043Z,51.77
2018-03-04T13:29:28.761Z,52.13
2018-03-04T13:32:02.515Z,51.93
2018-03-04T13:34:36.256Z,51.44
2018-03-04T13:37:10.118Z,51.82
2018-03-04T13:39:43.826Z,51.55
2018-03-04T13:42:17.730Z,51.37
2018-03-04T13:44:51.508Z,51.34
2018-03-04T13:47:25.254Z,51.30
2018-03-04T13:49:59.051Z,51.40
2018-03-04T13:52:32.650Z,51.46
2018-03-04T13:55:06.252Z,51.16
2018-03-04T13:57:39.953Z,51.21
2018-03-04T14:00:13.742Z,50.73
2018-03-04T14:02:47.495Z,50.85
2018-03-04T14:05:21.119Z,50.73
2018-03-04T14:07:54.844Z,50.98
2018-03-04T14:10:28.454Z,50.70
2018-03-04T14:13:02.128Z,50.47
2018-03-04T14:15:35.815Z,50.55
2018-03-04T14:18:09.427Z,50.99
2018-03-04T14:20:43.239Z,50.71
2018-03-04T14:23:16.906Z,50.80
2018-03-04T14:25:50.650Z,50.58
2018-03-04T14:28:24.382Z,50.48
2018-03-04T14:30:57.959Z,50.94
2018-03-04T14:33:31.690Z,50.82
2018-03-04T14:36:05.354Z,50.89
2018-03-04T14:38:38.941Z,50.93
2018-03-04T14:41:12.461Z,50.78
2018-03-04T14:43:46.021Z,50.05
2018-03-04T14:46:19.520Z,50.12
2018-03-04T14:48:53.222Z,50.12
2018-03-04T14:51:26.801Z,50.25
2018-03-04T14:54:00.558Z,50.30
2018-03-04T14:56:34.119Z,50.49
2018-03-04T14:59:07.825Z,50.87
2018-03-04T15:01:41.510Z,51.04
2018-03-04T15:04:15.087Z,51.57
2018-03-04T15:06:48.794Z,51.66
2018-03-04T15:09:22.338Z,51.87
2018-03-04T15:11:56.164Z,52.17
2018-03-04T15:14:29.979Z,52.47
2018-03-04T15:17:03.646Z,51.96
2018-03-04T15:19:37.225Z,52.34
2018-03-04T15:22:10.896Z,52.58
2018-03-04T15:24:44.678Z,52.62
2018-03-04T15:27:18.349Z,52.56
2018-03-04T15:29:51.936Z,52.99
2018-03-04T15:32:25.671Z,52.95
2018-03-04T15:34:59.447Z,53.36
2018-03-04T15:37:33.228Z,53.43
2018-03-04T15:40:06.813Z,53.56
2018-03-04T15:42:40.572Z,53.72
2018-03-04T15:45:14.099Z,53.72
2018-03-04T15:47:47.834Z,53.88
2018-03-04T15:50:21.311Z,54.07
2018-03-04T15:52:54.908Z,54.37
2018-03-04T15:55:28.670Z,54.83
2018-03-04T15:58:02.330Z,54.53
2018-03-04T16:00:35.810Z,54.84
2018-03-04T16:03:15.101Z,54.86
2018-03-04T16:05:48.709Z,55.06
2018-03-04T16:08:22.282Z,55.31
2018-03-04T16:10:56.260Z,55.51
2018-03-04T16:13:30.015Z,55.98
2018-03-04T16:16:03.692Z,55.91
2018-03-04T16:18:37.257Z,55.97
2018-03-04T16:21:11.091Z,55.93
2018-03-04T16:23:44.663Z,56.05
2018-03-04T16:26:18.339Z,56.13
2018-03-04T16:28:51.922Z,56.21
2018-03-04T16:31:25.479Z,56.21
2018-03-04T16:33:59.150Z,56.19
2018-03-04T16:36:32.674Z,56.41
2018-03-04T16:39:06.322Z,56.60
2018-03-04T16:41:39.878Z,56.60
2018-03-04T16:44:13.501Z,56.73
2018-03-04T16:46:47.108Z,56.84
2018-03-04T16:49:20.927Z,57.03
2018-03-04T16:51:54.478Z,57.17
2018-03-04T16:54:28.290Z,57.39
2018-03-04T16:57:02.106Z,57.54
2018-03-04T16:59:35.796Z,57.53
2018-03-04T17:02:09.298Z,57.75
2018-03-04T17:04:42.972Z,57.89
2018-03-04T17:07:16.454Z,58.19
2018-03-04T17:09:50.102Z,58.29
2018-03-04T17:12:23.792Z,58.36
2018-03-04T17:14:57.453Z,58.28
2018-03-04T17:17:30.946Z,58.69
2018-03-04T17:20:04.524Z,58.71
2018-03-04T17:22:38.169Z,58.93
2018-03-04T17:25:12.226Z,59.13
2018-03-04T17:27:45.739Z,59.05
2018-03-04T17:30:19.305Z,59.38
2018-03-04T17:32:52.925Z,59.50
2018-03-04T17:35:26.602Z,59.88
2018-03-04T17:38:00.167Z,60.59
2018-03-04T17:40:33.882Z,61.22
2018-03-04T17:43:07.586Z,63.46
2018-03-04T17:45:41.308Z,65.26
2018-03-04T17:48:14.927Z,66.70
2018-03-04T17:50:48.505Z,69.12
2018-03-04T17:53:22.032Z,70.58
2018-03-04T17:55:55.589Z,70.91
2018-03-04T17:58:29.164Z,72.18
2018-03-04T18:01:02.719Z,70.76
2018-03-04T18:03:36.213Z,70.80
2018-03-04T18:06:09.838Z,71.97
2018-03-04T18:08:43.502Z,72.26
2018-03-04T18:11:16.997Z,71.60
2018-03-04T18:13:50.675Z,71.50
2018-03-04T18:16:24.302Z,71.19
2018-03-04T18:18:58.369Z,71.05
2018-03-04T18:21:32.069Z,71.00
2018-03-04T18:24:05.669Z,70.95
2018-03-04T18:26:39.258Z,71.10
2018-03-04T18:29:12.779Z,70.68
2018-03-04T18:31:46.445Z,70.75
2018-03-04T18:34:20.035Z,69.66
2018-03-04T18:36:53.590Z,69.26
2018-03-04T18:39:27.392Z,68.91
2018-03-04T18:42:01.142Z,68.99
2018-03-04T18:44:34.731Z,68.60
2018-03-04T18:47:08.338Z,68.71
2018-03-04T18:49:42.274Z,68.91
2018-03-04T18:52:16.042Z,68.80
2018-03-04T18:54:49.580Z,68.71
2018-03-04T18:57:23.190Z,68.99
2018-03-04T18:59:56.928Z,68.78
2018-03-04T19:02:30.484Z,68.46
2018-03-04T19:05:04.074Z,68.98
2018-03-04T19:07:37.645Z,69.27
2018-03-04T19:10:11.322Z,70.42
2018-03-04T19:12:44.938Z,70.89
2018-03-04T19:15:18.594Z,70.81
2018-03-04T19:17:52.191Z,71.52
2018-03-04T19:20:25.809Z,70.50
2018-03-04T19:22:59.489Z,71.27
2018-03-04T19:25:33.078Z,70.96
2018-03-04T19:28:06.724Z,70.72
2018-03-04T19:30:40.325Z,70.63
2018-03-04T19:33:13.913Z,70.15
2018-03-04T19:35:47.545Z,70.35
2018-03-04T19:38:21.051Z,70.14
2018-03-04T19:40:54.702Z,70.86
2018-03-04T19:43:28.304Z,70.20
2018-03-04T19:46:02.021Z,70.13
2018-03-04T19:48:35.590Z,70.25
2018-03-04T19:51:09.223Z,69.68
2018-03-04T19:53:42.762Z,69.41
2018-03-04T19:56:16.423Z,69.10
2018-03-04T19:58:50.068Z,68.80
2018-03-04T20:01:23.825Z,68.54
2018-03-04T20:03:57.544Z,68.77
2018-03-04T20:06:31.205Z,68.25
2018-03-04T20:09:04.866Z,67.72
2018-03-04T20:11:38.442Z,67.20
2018-03-04T20:14:12.230Z,67.22
2018-03-04T20:16:45.911Z,67.48
2018-03-04T20:19:19.466Z,67.08
2018-03-04T20:21:53.030Z,67.12
2018-03-04T20:24:26.626Z,66.78
2018-03-04T20:27:00.151Z,67.06
2018-03-04T20:29:33.662Z,67.27
2018-03-04T20:32:07.351Z,66.99
2018-03-04T20:34:40.855Z,66.66
2018-03-04T20:37:14.550Z,66.54
2018-03-04T20:39:48.193Z,66.23
2018-03-04T20:42:21.778Z,66.21
2018-03-04T20:44:55.386Z,66.04
2018-03-04T20:47:29.074Z,65.87
2018-03-04T20:50:02.802Z,66.20
2018-03-04T20:52:36.526Z,65.15
2018-03-04T20:55:10.098Z,64.89
2018-03-04T20:57:43.706Z,64.98
2018-03-04T21:00:17.391Z,64.75
2018-03-04T21:02:50.979Z,64.62
2018-03-04T21:05:24.625Z,64.89
2018-03-04T21:07:58.212Z,65.15
2018-03-04T21:10:31.774Z,64.94
2018-03-04T21:13:05.434Z,65.06
2018-03-04T21:15:39.159Z,64.99
2018-03-04T21:18:12.886Z,65.50
2018-03-04T21:20:46.433Z,65.51
2018-03-04T21:23:20.159Z,65.64
2018-03-04T21:25:53.793Z,65.36
2018-03-04T21:28:27.546Z,65.46
2018-03-04T21:31:01.097Z,65.80
2018-03-04T21:33:34.745Z,65.76
2018-03-04T21:36:08.333Z,66.39
2018-03-04T21:38:42.000Z,66.08
2018-03-04T21:41:15.700Z,65.93
2018-03-04T21:43:49.362Z,66.26
2018-03-04T21:46:23.057Z,66.35
2018-03-04T21:48:56.656Z,66.47
2018-03-04T21:51:30.278Z,66.45
2018-03-04T21:54:03.856Z,66.55
2018-03-04T21:56:37.562Z,66.96
2018-03-04T21:59:11.283Z,67.35
2018-03-04T22:01:44.817Z,67.59
2018-03-04T22:04:18.476Z,67.43
2018-03-04T22:06:52.074Z,67.49
2018-03-04T22:09:25.746Z,67.70
2018-03-04T22:11:59.350Z,67.67
2018-03-04T22:14:33.006Z,67.98
2018-03-04T22:17:06.595Z,68.17
2018-03-04T22:19:40.089Z,68.13
2018-03-04T22:22:13.964Z,68.39
2018-03-04T22:24:48.453Z,68.26
2018-03-04T22:27:22.046Z,68.46
2018-03-04T22:29:55.572Z,68.57
2018-03-04T22:32:29.364Z,69.01
2018-03-04T22:35:02.963Z,69.14
2018-03-04T22:37:36.561Z,69.04
2018-03-04T22:40:10.202Z,69.08
2018-03-04T22:42:43.722Z,69.27
2018-03-04T22:45:17.309Z,69.39
2018-03-04T22:47:51.016Z,69.68
2018-03-04T22:50:24.569Z,69.79
2018-03-04T22:52:58.057Z,69.74
2018-03-04T22:55:31.654Z,70.71
2018-03-04T22:58:05.289Z,70.64
2018-03-04T23:00:39.098Z,70.58
2018-03-04T23:03:12.746Z,70.85
2018-03-04T23:05:46.308Z,71.23
2018-03-04T23:08:19.972Z,71.74
2018-03-04T23:10:53.509Z,72.39
2018-03-04T23:13:27.180Z,73.56
2018-03-04T23:16:00.675Z,73.44
2018-03-04T23:18:34.307Z,73.36
2018-03-04T23:21:07.980Z,73.63
2018-03-04T23:23:41.535Z,73.82
2018-03-04T23:26:15.316Z,73.98
2018-03-04T23:28:48.869Z,74.10
2018-03-04T23:31:22.433Z,74.09
2018-03-04T23:33:56.085Z,74.66
2018-03-04T23:36:29.630Z,74.95
2018-03-04T23:39:03.224Z,75.28
2018-03-04T23:41:36.830Z,75.31
2018-03-04T23:44:10.450Z,75.04
2018-03-04T23:46:44.074Z,75.24
2018-03-04T23:49:17.629Z,74.92
2018-03-04T23:51:51.405Z,74.98
2018-03-04T23:54:24.938Z,74.81
2018-03-04T23:56:58.671Z,74.89
2018-03-04T23:59:32.424Z,74.84
